5H4

Harvey Municipal Airport

Harvey, North Dakota, USA
METAR K5H4 211035Z AUTO 14012KT 8SM BKN005 OVC024 M17/M20 A2998 RMK AO2
Observed Flight Rules
Jan-21 @ 10:35 UTC (15 minutes ago) Instrument Flight Rules
Wind Visibility Clouds
140° at 12 knots 8 miles
  • Broken at 500' AGL
  • Overcast at 2,400' AGL
Temperatures Readings
Current -17°C / 1°F
Dewpoint -20°C / -4°F
Humidity 78%
Altimeter 29.98" Hg
Pressure 1015.22 hPa
Elevation 490
METAR K5H4 211035Z AUTO 14012KT 8SM BKN005 OVC024 M17/M20 A2998 RMK AO2
Observed Flight Rules
Jan-21 @ 10:35 UTC
(15 minutes ago)
IFR
Wind Visibility
140° at 12 knots 8 miles
Clouds
  • Broken at 500' AGL
  • Overcast at 2,400' AGL
Temperature Dewpoint
-17°C / 1°F -20°C / -4°F
Humidity Altimeter Pressure
78% 29.98" Hg 1015.22 hPa